sensor_id;sensor_type;location;lat;lon;timestamp;pressure;altitude;pressure_sealevel;temperature;humidity
56330;BME280;42236;48.058;10.632;2024-01-11T00:01:19;95381.72;;;-5.33;100.00
56330;BME280;42236;48.058;10.632;2024-01-11T00:04:05;95385.16;;;-5.33;100.00
56330;BME280;42236;48.058;10.632;2024-01-11T00:06:51;95384.00;;;-5.37;100.00
56330;BME280;42236;48.058;10.632;2024-01-11T00:09:41;95390.75;;;-5.41;100.00
56330;BME280;42236;48.058;10.632;2024-01-11T00:12:27;95386.03;;;-5.39;100.00
56330;BME280;42236;48.058;10.632;2024-01-11T00:15:13;95383.53;;;-5.34;100.00
56330;BME280;42236;48.058;10.632;2024-01-11T00:17:58;95385.25;;;-5.40;100.00
56330;BME280;42236;48.058;10.632;2024-01-11T00:20:44;95381.22;;;-5.42;100.00
56330;BME280;42236;48.058;10.632;2024-01-11T00:23:30;95380.78;;;-5.39;100.00
56330;BME280;42236;48.058;10.632;2024-01-11T00:26:15;95386.63;;;-5.37;100.00
56330;BME280;42236;48.058;10.632;2024-01-11T00:29:01;95395.53;;;-5.38;100.00
56330;BME280;42236;48.058;10.632;2024-01-11T00:31:47;95387.22;;;-5.35;100.00
56330;BME280;42236;48.058;10.632;2024-01-11T00:34:33;95390.41;;;-5.33;100.00
56330;BME280;42236;48.058;10.632;2024-01-11T00:37:19;95385.63;;;-5.36;100.00
56330;BME280;42236;48.058;10.632;2024-01-11T00:40:05;95386.63;;;-5.37;100.00
56330;BME280;42236;48.058;10.632;2024-01-11T00:42:51;95384.44;;;-5.40;100.00
56330;BME280;42236;48.058;10.632;2024-01-11T00:45:37;95385.63;;;-5.36;100.00
56330;BME280;42236;48.058;10.632;2024-01-11T00:48:22;95385.63;;;-5.36;100.00
56330;BME280;42236;48.058;10.632;2024-01-11T00:51:08;95389.03;;;-5.36;100.00
56330;BME280;42236;48.058;10.632;2024-01-11T00:53:54;95390.81;;;-5.48;100.00
56330;BME280;42236;48.058;10.632;2024-01-11T00:56:39;95393.44;;;-5.48;100.00
56330;BME280;42236;48.058;10.632;2024-01-11T00:59:25;95386.34;;;-5.47;100.00
56330;BME280;42236;48.058;10.632;2024-01-11T01:02:11;95389.19;;;-5.49;100.00
56330;BME280;42236;48.058;10.632;2024-01-11T01:04:57;95388.31;;;-5.61;100.00
56330;BME280;42236;48.058;10.632;2024-01-11T01:07:42;95395.00;;;-5.77;100.00
56330;BME280;42236;48.058;10.632;2024-01-11T01:10:28;95392.38;;;-5.77;100.00
56330;BME280;42236;48.058;10.632;2024-01-11T01:13:14;95391.34;;;-5.76;100.00
56330;BME280;42236;48.058;10.632;2024-01-11T01:15:59;95398.91;;;-5.68;100.00
56330;BME280;42236;48.058;10.632;2024-01-11T01:18:45;95402.13;;;-5.66;100.00
56330;BME280;42236;48.058;10.632;2024-01-11T01:21:31;95404.59;;;-5.71;100.00
56330;BME280;42236;48.058;10.632;2024-01-11T01:24:17;95402.94;;;-5.65;100.00
56330;BME280;42236;48.058;10.632;2024-01-11T01:27:03;95410.91;;;-5.72;100.00
56330;BME280;42236;48.058;10.632;2024-01-11T01:29:48;95413.38;;;-5.77;100.00
56330;BME280;42236;48.058;10.632;2024-01-11T01:32:34;95416.50;;;-5.68;100.00
56330;BME280;42236;48.058;10.632;2024-01-11T01:35:20;95415.78;;;-5.75;100.00
56330;BME280;42236;48.058;10.632;2024-01-11T01:38:06;95414.97;;;-5.76;100.00
56330;BME280;42236;48.058;10.632;2024-01-11T01:40:51;95419.78;;;-5.91;100.00
56330;BME280;42236;48.058;10.632;2024-01-11T01:43:37;95424.44;;;-6.12;100.00
56330;BME280;42236;48.058;10.632;2024-01-11T01:46:23;95429.84;;;-6.25;100.00
56330;BME280;42236;48.058;10.632;2024-01-11T01:49:11;95434.44;;;-6.46;100.00
56330;BME280;42236;48.058;10.632;2024-01-11T01:51:58;95434.03;;;-6.42;100.00
56330;BME280;42236;48.058;10.632;2024-01-11T01:54:44;95441.63;;;-6.34;100.00
56330;BME280;42236;48.058;10.632;2024-01-11T01:57:30;95441.50;;;-6.21;100.00
56330;BME280;42236;48.058;10.632;2024-01-11T02:00:18;95444.94;;;-6.20;100.00
56330;BME280;42236;48.058;10.632;2024-01-11T02:03:04;95446.38;;;-6.25;100.00
56330;BME280;42236;48.058;10.632;2024-01-11T02:05:50;95443.97;;;-6.26;100.00
56330;BME280;42236;48.058;10.632;2024-01-11T02:08:38;95448.25;;;-6.32;100.00
56330;BME280;42236;48.058;10.632;2024-01-11T02:11:25;95446.88;;;-6.34;100.00
56330;BME280;42236;48.058;10.632;2024-01-11T02:14:12;95454.59;;;-6.39;100.00
56330;BME280;42236;48.058;10.632;2024-01-11T02:16:58;95453.91;;;-6.60;100.00
56330;BME280;42236;48.058;10.632;2024-01-11T02:19:44;95455.09;;;-6.56;100.00
56330;BME280;42236;48.058;10.632;2024-01-11T02:22:35;95449.81;;;-6.49;100.00
56330;BME280;42236;48.058;10.632;2024-01-11T02:25:21;95456.91;;;-6.50;100.00
56330;BME280;42236;48.058;10.632;2024-01-11T02:28:07;95448.63;;;-6.53;100.00
56330;BME280;42236;48.058;10.632;2024-01-11T02:30:56;95449.84;;;-6.56;100.00
56330;BME280;42236;48.058;10.632;2024-01-11T02:33:42;95451.66;;;-6.50;100.00
56330;BME280;42236;48.058;10.632;2024-01-11T02:36:28;95440.97;;;-6.55;100.00
56330;BME280;42236;48.058;10.632;2024-01-11T02:39:16;95432.53;;;-6.57;100.00
56330;BME280;42236;48.058;10.632;2024-01-11T02:42:02;95433.94;;;-6.61;100.00
56330;BME280;42236;48.058;10.632;2024-01-11T02:44:48;95432.91;;;-6.60;100.00
56330;BME280;42236;48.058;10.632;2024-01-11T02:47:34;95433.91;;;-6.54;100.00
56330;BME280;42236;48.058;10.632;2024-01-11T02:50:20;95433.28;;;-6.50;100.00
56330;BME280;42236;48.058;10.632;2024-01-11T02:53:05;95437.34;;;-6.54;100.00
56330;BME280;42236;48.058;10.632;2024-01-11T02:55:51;95434.38;;;-6.64;100.00
56330;BME280;42236;48.058;10.632;2024-01-11T02:58:37;95444.59;;;-6.56;100.00
56330;BME280;42236;48.058;10.632;2024-01-11T03:01:22;95436.13;;;-6.58;100.00
56330;BME280;42236;48.058;10.632;2024-01-11T03:04:08;95435.72;;;-6.55;100.00
56330;BME280;42236;48.058;10.632;2024-01-11T03:06:54;95441.22;;;-6.63;100.00
56330;BME280;42236;48.058;10.632;2024-01-11T03:09:39;95433.16;;;-6.61;100.00
56330;BME280;42236;48.058;10.632;2024-01-11T03:12:25;95439.19;;;-6.61;100.00
56330;BME280;42236;48.058;10.632;2024-01-11T03:15:11;95440.38;;;-6.57;100.00
56330;BME280;42236;48.058;10.632;2024-01-11T03:17:57;95436.94;;;-6.57;100.00
56330;BME280;42236;48.058;10.632;2024-01-11T03:20:42;95428.44;;;-6.53;100.00
56330;BME280;42236;48.058;10.632;2024-01-11T03:23:28;95433.94;;;-6.61;100.00
56330;BME280;42236;48.058;10.632;2024-01-11T03:26:16;95431.38;;;-6.68;100.00
56330;BME280;42236;48.058;10.632;2024-01-11T03:29:02;95427.75;;;-6.67;100.00
56330;BME280;42236;48.058;10.632;2024-01-11T03:31:47;95425.28;;;-6.61;100.00
56330;BME280;42236;48.058;10.632;2024-01-11T03:34:33;95426.34;;;-6.69;100.00
56330;BME280;42236;48.058;10.632;2024-01-11T03:37:19;95421.66;;;-6.67;100.00
56330;BME280;42236;48.058;10.632;2024-01-11T03:40:05;95417.19;;;-6.60;100.00
56330;BME280;42236;48.058;10.632;2024-01-11T03:42:51;95409.66;;;-6.50;100.00
56330;BME280;42236;48.058;10.632;2024-01-11T03:45:36;95419.06;;;-6.42;100.00
56330;BME280;42236;48.058;10.632;2024-01-11T03:48:22;95418.44;;;-6.37;100.00
56330;BME280;42236;48.058;10.632;2024-01-11T03:51:08;95419.38;;;-6.32;100.00
56330;BME280;42236;48.058;10.632;2024-01-11T03:53:54;95410.06;;;-6.28;100.00
56330;BME280;42236;48.058;10.632;2024-01-11T03:56:39;95404.19;;;-6.23;100.00
56330;BME280;42236;48.058;10.632;2024-01-11T03:59:25;95402.69;;;-6.19;100.00
56330;BME280;42236;48.058;10.632;2024-01-11T04:02:11;95403.88;;;-6.15;100.00
56330;BME280;42236;48.058;10.632;2024-01-11T04:04:56;95392.72;;;-6.10;100.00
56330;BME280;42236;48.058;10.632;2024-01-11T04:07:42;95390.47;;;-6.07;100.00
56330;BME280;42236;48.058;10.632;2024-01-11T04:10:28;95395.06;;;-6.02;100.00
56330;BME280;42236;48.058;10.632;2024-01-11T04:13:13;95393.63;;;-5.98;100.00
56330;BME280;42236;48.058;10.632;2024-01-11T04:16:05;95388.00;;;-6.02;100.00
56330;BME280;42236;48.058;10.632;2024-01-11T04:18:51;95395.31;;;-6.04;100.00
56330;BME280;42236;48.058;10.632;2024-01-11T04:21:37;95393.97;;;-6.13;100.00
56330;BME280;42236;48.058;10.632;2024-01-11T04:24:24;95405.91;;;-6.17;100.00
56330;BME280;42236;48.058;10.632;2024-01-11T04:27:10;95398.63;;;-6.15;100.00
56330;BME280;42236;48.058;10.632;2024-01-11T04:29:56;95390.31;;;-6.12;100.00
56330;BME280;42236;48.058;10.632;2024-01-11T04:32:41;95397.78;;;-6.09;100.00
56330;BME280;42236;48.058;10.632;2024-01-11T04:35:27;95390.63;;;-6.02;100.00
56330;BME280;42236;48.058;10.632;2024-01-11T04:38:13;95386.53;;;-5.97;100.00
56330;BME280;42236;48.058;10.632;2024-01-11T04:40:58;95392.94;;;-5.93;100.00
56330;BME280;42236;48.058;10.632;2024-01-11T04:43:44;95384.03;;;-5.92;100.00
56330;BME280;42236;48.058;10.632;2024-01-11T04:46:30;95386.66;;;-5.92;100.00
56330;BME280;42236;48.058;10.632;2024-01-11T04:49:16;95389.53;;;-5.94;100.00
56330;BME280;42236;48.058;10.632;2024-01-11T04:52:02;95392.72;;;-5.92;100.00
56330;BME280;42236;48.058;10.632;2024-01-11T04:54:48;95393.53;;;-5.91;100.00
56330;BME280;42236;48.058;10.632;2024-01-11T04:57:33;95395.13;;;-5.90;100.00
56330;BME280;42236;48.058;10.632;2024-01-11T05:00:19;95403.59;;;-5.88;100.00
56330;BME280;42236;48.058;10.632;2024-01-11T05:03:05;95397.75;;;-5.90;100.00
56330;BME280;42236;48.058;10.632;2024-01-11T05:05:51;95395.91;;;-5.90;100.00
56330;BME280;42236;48.058;10.632;2024-01-11T05:08:36;95400.75;;;-5.87;100.00
56330;BME280;42236;48.058;10.632;2024-01-11T05:11:23;95408.63;;;-5.87;100.00
56330;BME280;42236;48.058;10.632;2024-01-11T05:14:09;95409.88;;;-5.89;100.00
56330;BME280;42236;48.058;10.632;2024-01-11T05:16:55;95400.16;;;-5.89;100.00
56330;BME280;42236;48.058;10.632;2024-01-11T05:19:41;95397.88;;;-5.85;100.00
56330;BME280;42236;48.058;10.632;2024-01-11T05:22:27;95393.44;;;-5.85;100.00
56330;BME280;42236;48.058;10.632;2024-01-11T05:25:12;95400.09;;;-5.82;100.00
56330;BME280;42236;48.058;10.632;2024-01-11T05:28:02;95401.50;;;-5.80;100.00
56330;BME280;42236;48.058;10.632;2024-01-11T05:30:48;95394.53;;;-5.92;100.00
56330;BME280;42236;48.058;10.632;2024-01-11T05:33:34;95399.22;;;-5.94;100.00
56330;BME280;42236;48.058;10.632;2024-01-11T05:36:20;95405.03;;;-5.92;100.00
56330;BME280;42236;48.058;10.632;2024-01-11T05:39:07;95408.50;;;-5.92;100.00
56330;BME280;42236;48.058;10.632;2024-01-11T05:41:52;95401.56;;;-5.86;100.00
56330;BME280;42236;48.058;10.632;2024-01-11T05:44:38;95400.44;;;-5.79;100.00
56330;BME280;42236;48.058;10.632;2024-01-11T05:47:24;95403.47;;;-5.75;100.00
56330;BME280;42236;48.058;10.632;2024-01-11T05:50:10;95406.28;;;-5.76;100.00
56330;BME280;42236;48.058;10.632;2024-01-11T05:52:57;95414.84;;;-5.81;100.00
56330;BME280;42236;48.058;10.632;2024-01-11T05:55:42;95426.94;;;-5.80;100.00
56330;BME280;42236;48.058;10.632;2024-01-11T05:58:28;95427.81;;;-5.86;100.00
56330;BME280;42236;48.058;10.632;2024-01-11T06:01:14;95429.16;;;-5.95;100.00
56330;BME280;42236;48.058;10.632;2024-01-11T06:04:00;95436.88;;;-6.01;100.00
56330;BME280;42236;48.058;10.632;2024-01-11T06:06:45;95439.88;;;-5.97;100.00
56330;BME280;42236;48.058;10.632;2024-01-11T06:09:31;95437.16;;;-5.90;100.00
56330;BME280;42236;48.058;10.632;2024-01-11T06:12:17;95437.16;;;-5.90;100.00
56330;BME280;42236;48.058;10.632;2024-01-11T06:15:03;95450.06;;;-5.89;100.00
56330;BME280;42236;48.058;10.632;2024-01-11T06:17:48;95445.19;;;-5.85;100.00
56330;BME280;42236;48.058;10.632;2024-01-11T06:20:34;95453.34;;;-5.93;100.00
56330;BME280;42236;48.058;10.632;2024-01-11T06:23:20;95453.72;;;-6.08;100.00
56330;BME280;42236;48.058;10.632;2024-01-11T06:26:07;95455.13;;;-6.06;100.00
56330;BME280;42236;48.058;10.632;2024-01-11T06:28:53;95445.19;;;-6.04;100.00
56330;BME280;42236;48.058;10.632;2024-01-11T06:31:39;95439.50;;;-6.01;100.00
56330;BME280;42236;48.058;10.632;2024-01-11T06:34:24;95436.44;;;-5.97;100.00
56330;BME280;42236;48.058;10.632;2024-01-11T06:37:10;95431.63;;;-6.01;100.00
56330;BME280;42236;48.058;10.632;2024-01-11T06:39:56;95444.59;;;-6.06;100.00
56330;BME280;42236;48.058;10.632;2024-01-11T06:42:41;95450.72;;;-6.12;100.00
56330;BME280;42236;48.058;10.632;2024-01-11T06:45:27;95452.34;;;-6.11;100.00
56330;BME280;42236;48.058;10.632;2024-01-11T06:48:13;95462.41;;;-6.08;100.00
56330;BME280;42236;48.058;10.632;2024-01-11T06:50:58;95469.84;;;-6.05;100.00
56330;BME280;42236;48.058;10.632;2024-01-11T06:53:44;95472.59;;;-6.18;100.00
56330;BME280;42236;48.058;10.632;2024-01-11T06:56:30;95471.44;;;-6.29;100.00
56330;BME280;42236;48.058;10.632;2024-01-11T06:59:16;95482.75;;;-6.28;100.00
56330;BME280;42236;48.058;10.632;2024-01-11T07:02:02;95479.28;;;-6.22;100.00
56330;BME280;42236;48.058;10.632;2024-01-11T07:04:48;95477.22;;;-6.13;100.00
56330;BME280;42236;48.058;10.632;2024-01-11T07:07:33;95475.09;;;-6.05;100.00
56330;BME280;42236;48.058;10.632;2024-01-11T07:10:19;95486.00;;;-6.01;100.00
56330;BME280;42236;48.058;10.632;2024-01-11T07:13:05;95488.72;;;-6.14;100.00
56330;BME280;42236;48.058;10.632;2024-01-11T07:15:52;95485.72;;;-6.18;100.00
56330;BME280;42236;48.058;10.632;2024-01-11T07:18:38;95491.78;;;-6.17;100.00
56330;BME280;42236;48.058;10.632;2024-01-11T07:21:23;95493.16;;;-6.15;100.00
56330;BME280;42236;48.058;10.632;2024-01-11T07:24:14;95491.13;;;-6.13;100.00
56330;BME280;42236;48.058;10.632;2024-01-11T07:27:01;95486.47;;;-6.11;100.00
56330;BME280;42236;48.058;10.632;2024-01-11T07:29:46;95493.59;;;-6.18;100.00
56330;BME280;42236;48.058;10.632;2024-01-11T07:32:32;95497.34;;;-6.32;100.00
56330;BME280;42236;48.058;10.632;2024-01-11T07:35:18;95502.16;;;-6.29;100.00
56330;BME280;42236;48.058;10.632;2024-01-11T07:38:03;95504.50;;;-6.21;100.00
56330;BME280;42236;48.058;10.632;2024-01-11T07:40:49;95503.66;;;-6.15;100.00
56330;BME280;42236;48.058;10.632;2024-01-11T07:43:35;95517.56;;;-6.08;100.00
56330;BME280;42236;48.058;10.632;2024-01-11T07:46:21;95517.56;;;-6.08;100.00
56330;BME280;42236;48.058;10.632;2024-01-11T07:49:06;95516.72;;;-6.02;100.00
56330;BME280;42236;48.058;10.632;2024-01-11T07:51:53;95525.75;;;-5.97;100.00
56330;BME280;42236;48.058;10.632;2024-01-11T07:54:39;95527.78;;;-5.99;100.00
56330;BME280;42236;48.058;10.632;2024-01-11T07:57:25;95525.16;;;-5.99;100.00
56330;BME280;42236;48.058;10.632;2024-01-11T08:00:11;95521.22;;;-5.90;100.00
56330;BME280;42236;48.058;10.632;2024-01-11T08:02:56;95518.75;;;-5.85;100.00
56330;BME280;42236;48.058;10.632;2024-01-11T08:05:42;95520.53;;;-5.79;100.00
56330;BME280;42236;48.058;10.632;2024-01-11T08:08:29;95519.06;;;-5.75;100.00
56330;BME280;42236;48.058;10.632;2024-01-11T08:11:15;95523.09;;;-5.72;100.00
56330;BME280;42236;48.058;10.632;2024-01-11T08:14:01;95532.28;;;-5.63;100.00
56330;BME280;42236;48.058;10.632;2024-01-11T08:16:46;95531.03;;;-5.61;100.00
56330;BME280;42236;48.058;10.632;2024-01-11T08:19:32;95533.03;;;-5.56;100.00
56330;BME280;42236;48.058;10.632;2024-01-11T08:22:18;95532.66;;;-5.60;100.00
56330;BME280;42236;48.058;10.632;2024-01-11T08:25:04;95533.47;;;-5.59;100.00
56330;BME280;42236;48.058;10.632;2024-01-11T08:27:50;95530.19;;;-5.54;100.00
56330;BME280;42236;48.058;10.632;2024-01-11T08:30:36;95528.22;;;-5.59;100.00
56330;BME280;42236;48.058;10.632;2024-01-11T08:33:22;95532.81;;;-5.54;100.00
56330;BME280;42236;48.058;10.632;2024-01-11T08:36:07;95538.63;;;-5.46;100.00
56330;BME280;42236;48.058;10.632;2024-01-11T08:38:53;95532.25;;;-5.38;100.00
56330;BME280;42236;48.058;10.632;2024-01-11T08:41:39;95525.09;;;-5.31;100.00
56330;BME280;42236;48.058;10.632;2024-01-11T08:44:26;95529.91;;;-5.28;100.00
56330;BME280;42236;48.058;10.632;2024-01-11T08:47:12;95537.59;;;-5.26;100.00
56330;BME280;42236;48.058;10.632;2024-01-11T08:49:58;95540.28;;;-5.33;100.00
56330;BME280;42236;48.058;10.632;2024-01-11T08:52:44;95539.13;;;-5.37;100.00
56330;BME280;42236;48.058;10.632;2024-01-11T08:55:29;95548.44;;;-5.60;100.00
56330;BME280;42236;48.058;10.632;2024-01-11T08:58:15;95548.00;;;-5.57;100.00
56330;BME280;42236;48.058;10.632;2024-01-11T09:01:01;95550.03;;;-5.59;100.00
56330;BME280;42236;48.058;10.632;2024-01-11T09:03:46;95559.53;;;-5.58;100.00
56330;BME280;42236;48.058;10.632;2024-01-11T09:06:33;95557.22;;;-5.47;100.00
56330;BME280;42236;48.058;10.632;2024-01-11T09:09:19;95574.06;;;-5.55;100.00
56330;BME280;42236;48.058;10.632;2024-01-11T09:12:05;95588.31;;;-5.63;100.00
56330;BME280;42236;48.058;10.632;2024-01-11T09:14:52;95603.00;;;-5.55;100.00
56330;BME280;42236;48.058;10.632;2024-01-11T09:17:38;95596.94;;;-5.55;100.00
56330;BME280;42236;48.058;10.632;2024-01-11T09:20:24;95598.47;;;-5.48;100.00
56330;BME280;42236;48.058;10.632;2024-01-11T09:23:09;95593.31;;;-5.36;100.00
56330;BME280;42236;48.058;10.632;2024-01-11T09:25:55;95594.06;;;-5.29;100.00
56330;BME280;42236;48.058;10.632;2024-01-11T09:28:41;95592.44;;;-5.30;100.00
56330;BME280;42236;48.058;10.632;2024-01-11T09:31:26;95592.59;;;-5.25;100.00
56330;BME280;42236;48.058;10.632;2024-01-11T09:34:12;95602.56;;;-5.08;100.00
56330;BME280;42236;48.058;10.632;2024-01-11T09:36:58;95607.50;;;-5.00;100.00
56330;BME280;42236;48.058;10.632;2024-01-11T09:39:44;95598.16;;;-4.96;100.00
56330;BME280;42236;48.058;10.632;2024-01-11T09:42:30;95607.06;;;-5.16;100.00
56330;BME280;42236;48.058;10.632;2024-01-11T09:45:16;95610.75;;;-5.17;100.00
56330;BME280;42236;48.058;10.632;2024-01-11T09:48:05;95608.56;;;-5.01;100.00
56330;BME280;42236;48.058;10.632;2024-01-11T09:50:52;95590.16;;;-4.83;100.00
56330;BME280;42236;48.058;10.632;2024-01-11T09:53:39;95586.75;;;-4.72;100.00
56330;BME280;42236;48.058;10.632;2024-01-11T09:56:25;95600.94;;;-4.73;100.00
56330;BME280;42236;48.058;10.632;2024-01-11T09:59:13;95608.31;;;-4.81;100.00
56330;BME280;42236;48.058;10.632;2024-01-11T10:02:01;95610.22;;;-4.88;100.00
56330;BME280;42236;48.058;10.632;2024-01-11T10:04:48;95604.31;;;-4.84;100.00
56330;BME280;42236;48.058;10.632;2024-01-11T10:07:34;95585.03;;;-4.78;100.00
56330;BME280;42236;48.058;10.632;2024-01-11T10:10:21;95586.75;;;-4.72;100.00
56330;BME280;42236;48.058;10.632;2024-01-11T10:13:07;95589.09;;;-4.63;100.00
56330;BME280;42236;48.058;10.632;2024-01-11T10:16:05;95576.00;;;-4.52;100.00
56330;BME280;42236;48.058;10.632;2024-01-11T10:18:55;95569.38;;;-4.42;100.00
56330;BME280;42236;48.058;10.632;2024-01-11T10:21:41;95582.28;;;-4.53;100.00
56330;BME280;42236;48.058;10.632;2024-01-11T10:24:27;95571.09;;;-4.66;100.00
56330;BME280;42236;48.058;10.632;2024-01-11T10:27:13;95560.28;;;-4.77;100.00
56330;BME280;42236;48.058;10.632;2024-01-11T10:29:59;95560.56;;;-4.66;100.00
56330;BME280;42236;48.058;10.632;2024-01-11T10:32:46;95548.72;;;-4.57;100.00
56330;BME280;42236;48.058;10.632;2024-01-11T10:35:31;95542.16;;;-4.36;100.00
56330;BME280;42236;48.058;10.632;2024-01-11T10:38:17;95529.63;;;-4.22;100.00
56330;BME280;42236;48.058;10.632;2024-01-11T10:41:05;95539.81;;;-4.14;100.00
56330;BME280;42236;48.058;10.632;2024-01-11T10:43:53;95525.41;;;-4.00;100.00
56330;BME280;42236;48.058;10.632;2024-01-11T10:46:45;95519.25;;;-3.94;100.00
56330;BME280;42236;48.058;10.632;2024-01-11T10:49:32;95521.44;;;-3.79;100.00
56330;BME280;42236;48.058;10.632;2024-01-11T10:52:22;95521.31;;;-3.72;100.00
56330;BME280;42236;48.058;10.632;2024-01-11T10:55:14;95526.47;;;-3.66;100.00
56330;BME280;42236;48.058;10.632;2024-01-11T10:58:01;95522.94;;;-3.59;100.00
56330;BME280;42236;48.058;10.632;2024-01-11T11:00:49;95522.38;;;-3.50;100.00
56330;BME280;42236;48.058;10.632;2024-01-11T11:03:37;95527.75;;;-3.45;100.00
56330;BME280;42236;48.058;10.632;2024-01-11T11:06:24;95525.91;;;-3.44;100.00
56330;BME280;42236;48.058;10.632;2024-01-11T11:09:11;95519.72;;;-3.50;100.00
56330;BME280;42236;48.058;10.632;2024-01-11T11:11:58;95534.19;;;-3.40;100.00
56330;BME280;42236;48.058;10.632;2024-01-11T11:14:45;95530.03;;;-3.36;100.00
56330;BME280;42236;48.058;10.632;2024-01-11T11:17:32;95533.34;;;-3.29;100.00
56330;BME280;42236;48.058;10.632;2024-01-11T11:20:19;95532.09;;;-3.38;100.00
56330;BME280;42236;48.058;10.632;2024-01-11T11:23:06;95531.88;;;-3.49;100.00
56330;BME280;42236;48.058;10.632;2024-01-11T11:25:54;95525.22;;;-3.51;100.00
56330;BME280;42236;48.058;10.632;2024-01-11T11:28:44;95513.97;;;-3.47;100.00
56330;BME280;42236;48.058;10.632;2024-01-11T11:31:36;95534.03;;;-3.46;100.00
56330;BME280;42236;48.058;10.632;2024-01-11T11:34:41;95526.16;;;-3.57;98.98
56330;BME280;42236;48.058;10.632;2024-01-11T11:37:31;95526.00;;;-3.62;100.00
56330;BME280;42236;48.058;10.632;2024-01-11T11:40:19;95524.53;;;-3.70;100.00
56330;BME280;42236;48.058;10.632;2024-01-11T11:43:06;95520.19;;;-3.76;100.00
56330;BME280;42236;48.058;10.632;2024-01-11T11:45:52;95524.06;;;-3.79;100.00
56330;BME280;42236;48.058;10.632;2024-01-11T11:51:27;95510.22;;;-3.74;100.00
56330;BME280;42236;48.058;10.632;2024-01-11T11:54:14;95518.31;;;-3.88;100.00
56330;BME280;42236;48.058;10.632;2024-01-11T11:57:00;95524.16;;;-3.97;100.00
56330;BME280;42236;48.058;10.632;2024-01-11T11:59:46;95529.66;;;-3.87;100.00
56330;BME280;42236;48.058;10.632;2024-01-11T12:02:32;95534.59;;;-3.91;100.00
56330;BME280;42236;48.058;10.632;2024-01-11T12:05:21;95536.44;;;-3.91;100.00
56330;BME280;42236;48.058;10.632;2024-01-11T12:08:07;95535.75;;;-3.87;100.00
56330;BME280;42236;48.058;10.632;2024-01-11T12:10:52;95528.06;;;-4.00;100.00
56330;BME280;42236;48.058;10.632;2024-01-11T12:13:39;95523.91;;;-4.08;100.00
56330;BME280;42236;48.058;10.632;2024-01-11T12:16:25;95524.84;;;-4.02;100.00
56330;BME280;42236;48.058;10.632;2024-01-11T12:19:11;95507.53;;;-3.98;100.00
56330;BME280;42236;48.058;10.632;2024-01-11T12:21:57;95522.91;;;-3.95;100.00
56330;BME280;42236;48.058;10.632;2024-01-11T12:24:43;95520.75;;;-3.86;100.00
56330;BME280;42236;48.058;10.632;2024-01-11T12:27:30;95511.13;;;-3.69;100.00
56330;BME280;42236;48.058;10.632;2024-01-11T12:30:22;95521.56;;;-3.62;100.00
56330;BME280;42236;48.058;10.632;2024-01-11T12:33:08;95517.28;;;-3.75;100.00
56330;BME280;42236;48.058;10.632;2024-01-11T12:35:54;95525.69;;;-3.66;100.00
56330;BME280;42236;48.058;10.632;2024-01-11T12:38:46;95513.66;;;-3.62;100.00
56330;BME280;42236;48.058;10.632;2024-01-11T12:41:32;95497.59;;;-3.49;100.00
56330;BME280;42236;48.058;10.632;2024-01-11T12:44:18;95483.81;;;-3.39;100.00
56330;BME280;42236;48.058;10.632;2024-01-11T12:47:05;95483.69;;;-3.32;100.00
56330;BME280;42236;48.058;10.632;2024-01-11T12:49:53;95481.28;;;-3.34;99.70
56330;BME280;42236;48.058;10.632;2024-01-11T12:52:39;95485.63;;;-3.16;100.00
56330;BME280;42236;48.058;10.632;2024-01-11T12:55:24;95482.59;;;-3.08;100.00
56330;BME280;42236;48.058;10.632;2024-01-11T12:58:10;95490.72;;;-2.97;100.00
56330;BME280;42236;48.058;10.632;2024-01-11T13:00:56;95488.19;;;-2.92;99.75
56330;BME280;42236;48.058;10.632;2024-01-11T13:03:46;95504.16;;;-2.87;99.87
56330;BME280;42236;48.058;10.632;2024-01-11T13:06:32;95505.03;;;-2.82;99.39
56330;BME280;42236;48.058;10.632;2024-01-11T13:09:17;95489.50;;;-2.78;99.69
56330;BME280;42236;48.058;10.632;2024-01-11T13:12:04;95501.16;;;-2.91;96.87
56330;BME280;42236;48.058;10.632;2024-01-11T13:14:49;95501.69;;;-3.29;98.54
56330;BME280;42236;48.058;10.632;2024-01-11T13:17:38;95508.94;;;-3.48;99.67
56330;BME280;42236;48.058;10.632;2024-01-11T13:20:24;95502.97;;;-3.44;100.00
56330;BME280;42236;48.058;10.632;2024-01-11T13:23:19;95488.88;;;-3.37;100.00
56330;BME280;42236;48.058;10.632;2024-01-11T13:26:09;95485.75;;;-3.34;100.00
56330;BME280;42236;48.058;10.632;2024-01-11T13:28:55;95482.53;;;-3.36;99.99
56330;BME280;42236;48.058;10.632;2024-01-11T13:31:41;95495.72;;;-3.36;100.00
56330;BME280;42236;48.058;10.632;2024-01-11T13:34:26;95496.09;;;-3.45;100.00
56330;BME280;42236;48.058;10.632;2024-01-11T13:37:12;95499.41;;;-3.37;100.00
56330;BME280;42236;48.058;10.632;2024-01-11T13:39:58;95499.06;;;-3.29;100.00
56330;BME280;42236;48.058;10.632;2024-01-11T13:42:43;95490.91;;;-3.28;100.00
56330;BME280;42236;48.058;10.632;2024-01-11T13:45:30;95497.00;;;-3.27;100.00
56330;BME280;42236;48.058;10.632;2024-01-11T13:48:15;95491.50;;;-3.26;99.77
56330;BME280;42236;48.058;10.632;2024-01-11T13:51:02;95484.00;;;-3.29;99.34
56330;BME280;42236;48.058;10.632;2024-01-11T13:53:50;95495.50;;;-3.35;99.24
56330;BME280;42236;48.058;10.632;2024-01-11T13:56:36;95509.63;;;-3.53;99.25
56330;BME280;42236;48.058;10.632;2024-01-11T13:59:21;95513.50;;;-3.55;100.00
56330;BME280;42236;48.058;10.632;2024-01-11T14:02:07;95512.81;;;-3.51;100.00
56330;BME280;42236;48.058;10.632;2024-01-11T14:04:53;95519.63;;;-3.43;100.00
56330;BME280;42236;48.058;10.632;2024-01-11T14:07:39;95528.66;;;-3.51;99.67
56330;BME280;42236;48.058;10.632;2024-01-11T14:10:25;95527.97;;;-3.58;100.00
56330;BME280;42236;48.058;10.632;2024-01-11T14:13:11;95527.53;;;-3.55;100.00
56330;BME280;42236;48.058;10.632;2024-01-11T14:15:56;95520.31;;;-3.48;100.00
56330;BME280;42236;48.058;10.632;2024-01-11T14:18:42;95526.47;;;-3.54;100.00
56330;BME280;42236;48.058;10.632;2024-01-11T14:21:28;95534.16;;;-3.64;100.00